Aérodrome :
LOGIN :

S'inscrire | Disclaimer

   EN    FR    IT 

 










Légende :    VFR   VFR Marginal   IFR   IFR Intensif   IFR Très Intensif
Visi : 
Plafond : 
>= 8 km
>= 3000ft
5 à 8 km
1000 à 3000 ft
1500m à 5 km
500 à 1000 ft
800 à 1500m
200 à 500 ft
< 800m
< 200 ft
Symboles :   Orages  Brouillard  Fortes neiges  Fortes précipitations  Vent > 20 kt
SIGMETs :   Divers  Orages  Givrage  Turbulence  Onde Orograph.  Cendres Volcan.







- Altitude de l'aérodrome : 7 ft
- Code IATA : XHE
- Voir les cartes d'approche


LFTH - Hyeres

DERNIER METAR :
  • 240000Z AUTO 28005KT 230V320 CAVOK 26/16 Q1011 NOSIG

METARs EXPIRÉS :
  • 232330Z AUTO 18004KT 140V210 CAVOK 26/16 Q1012 NOSIG
  • 232300Z AUTO VRB02KT CAVOK 26/15 Q1012 NOSIG
  • 232230Z AUTO 31012KT CAVOK 26/15 Q1011 NOSIG
  • 232200Z AUTO 29014G26KT 260V320 CAVOK 25/18 Q1013 TEMPO 4000 SHRA FEW020CB SCT025TCU BKN030
  • 232130Z AUTO 27022G32KT 9999 -RA ///TCU 25/19 Q1013 TEMPO 4000 SHRA FEW020CB SCT025TCU BKN030 BECMG 26010KT

TAF TAF LFTH
Valide du 23 à 21h jusqu'au 24 à 21h UTC


232000Z 2321/2421 26010KT CAVOK
TEMPO 2321/2323 28017G27KT 4000 SHRA FEW020CB SCT025TCU BKN030
BECMG 2406/2409 27015G25KT
TEMPO 2409/2421 28021G35KT
Pas de NOTAMs connus pour ce terrain.



MET'MAP, la Météo Aéronautique d'un coup d'oeil ! - Copyright ORBIFLY Décembre 2007 - Disclaimer

ORBIFLY MET'MAP TEAM :

Programmation & Développement : Alexandra Zaïnal
Conception & Développement : Baudouin d'Aumeries
Co-Programmation & Développement : Marc-Olivier Méhu
Soutien technique & logistique : Manuel Goepfert

Contact : metmap@orbifly.com




SOURCES & CREDITS :

   NOAA